createdAt,value
2019-04-27T00:00:55.379Z,0.00
2019-04-27T00:01:55.334Z,0.00
2019-04-27T00:03:01.887Z,0.00
2019-04-27T00:03:55.443Z,0.00
2019-04-27T00:04:55.811Z,0.00
2019-04-27T00:05:55.552Z,0.00
2019-04-27T00:06:55.606Z,0.00
2019-04-27T00:07:59.246Z,0.00
2019-04-27T00:08:55.715Z,0.00
2019-04-27T00:09:55.768Z,0.00
2019-04-27T00:10:59.670Z,0.00
2019-04-27T00:11:55.877Z,0.00
2019-04-27T00:12:57.294Z,0.00
2019-04-27T00:13:55.984Z,0.00
2019-04-27T00:14:56.148Z,0.00
2019-04-27T00:15:56.095Z,0.00
2019-04-27T00:16:56.147Z,0.00
2019-04-27T00:17:58.269Z,0.00
2019-04-27T00:18:57.890Z,0.00
2019-04-27T00:19:56.311Z,0.00
2019-04-27T00:20:56.363Z,0.00
2019-04-27T00:21:56.418Z,0.00
2019-04-27T00:22:56.474Z,0.00
2019-04-27T00:23:56.531Z,0.00
2019-04-27T00:24:56.580Z,0.00
2019-04-27T00:25:56.634Z,0.00
2019-04-27T00:26:56.689Z,0.00
2019-04-27T00:27:56.742Z,0.00
2019-04-27T00:28:56.804Z,0.00
2019-04-27T00:29:56.850Z,0.00
2019-04-27T00:30:56.905Z,0.00
2019-04-27T00:31:56.959Z,0.00
2019-04-27T00:32:57.012Z,0.00
2019-04-27T00:33:57.065Z,0.00
2019-04-27T00:34:57.120Z,0.00
2019-04-27T00:35:57.175Z,0.00
2019-04-27T00:36:57.230Z,0.00
2019-04-27T00:37:57.283Z,0.00
2019-04-27T00:38:57.338Z,0.00
2019-04-27T00:39:57.392Z,0.00
2019-04-27T00:40:58.047Z,0.00
2019-04-27T00:41:58.136Z,0.00
2019-04-27T00:42:57.553Z,0.00
2019-04-27T00:43:57.607Z,0.00
2019-04-27T00:44:57.662Z,0.00
2019-04-27T00:45:57.716Z,0.00
2019-04-27T00:46:57.769Z,0.00
2019-04-27T00:47:59.702Z,0.00
2019-04-27T00:48:57.879Z,0.00
2019-04-27T00:49:57.933Z,0.00
2019-04-27T00:50:57.987Z,0.00
2019-04-27T00:51:58.042Z,0.00
2019-04-27T00:52:58.093Z,0.00
2019-04-27T00:53:58.214Z,0.00
2019-04-27T00:54:58.204Z,0.00
2019-04-27T00:55:58.257Z,0.00
2019-04-27T00:56:58.311Z,0.00
2019-04-27T00:57:59.047Z,0.00
2019-04-27T00:58:58.419Z,0.00
2019-04-27T00:59:58.473Z,0.00
2019-04-27T01:00:58.525Z,0.00
2019-04-27T01:01:58.581Z,0.00
2019-04-27T01:02:58.635Z,0.00
2019-04-27T01:03:58.689Z,0.00
2019-04-27T01:04:58.743Z,0.00
2019-04-27T01:05:58.798Z,0.00
2019-04-27T01:06:58.851Z,0.00
2019-04-27T01:07:58.905Z,0.00
2019-04-27T01:08:58.958Z,0.00
2019-04-27T01:09:59.013Z,0.00
2019-04-27T01:10:59.066Z,0.00
2019-04-27T01:11:59.121Z,0.00
2019-04-27T01:12:59.175Z,0.00
2019-04-27T01:13:59.228Z,0.00
2019-04-27T01:14:59.283Z,0.00
2019-04-27T01:15:59.335Z,0.00
2019-04-27T01:16:59.838Z,0.00
2019-04-27T01:18:11.641Z,0.00
2019-04-27T01:18:59.499Z,0.00
2019-04-27T01:19:59.640Z,0.00
2019-04-27T01:20:59.610Z,0.00
2019-04-27T01:21:59.659Z,0.00
2019-04-27T01:22:59.715Z,0.00
2019-04-27T01:23:59.767Z,0.00
2019-04-27T01:24:59.819Z,0.00
2019-04-27T01:25:59.874Z,0.00
2019-04-27T01:27:00.125Z,0.00
2019-04-27T01:27:59.982Z,0.00
2019-04-27T01:29:00.035Z,0.00
2019-04-27T01:30:00.089Z,0.00
2019-04-27T01:31:00.618Z,0.00
2019-04-27T01:32:00.197Z,0.00
2019-04-27T01:33:00.250Z,0.00
2019-04-27T01:34:00.303Z,0.00
2019-04-27T01:35:00.361Z,0.00
2019-04-27T01:36:00.410Z,0.00
2019-04-27T01:37:00.463Z,0.00
2019-04-27T01:38:00.518Z,0.00
2019-04-27T01:39:00.573Z,0.00
2019-04-27T01:40:00.625Z,0.00
2019-04-27T01:41:00.789Z,0.00
2019-04-27T01:42:00.733Z,0.00
2019-04-27T01:43:00.786Z,0.00
2019-04-27T01:44:00.839Z,0.00
2019-04-27T01:45:00.892Z,0.00
2019-04-27T01:46:01.193Z,0.00
2019-04-27T01:47:01.000Z,0.00
2019-04-27T01:48:01.053Z,0.00
2019-04-27T01:49:01.106Z,0.00
2019-04-27T01:50:01.161Z,0.00
2019-04-27T01:51:01.220Z,0.00
2019-04-27T01:52:01.268Z,0.00
2019-04-27T01:53:01.323Z,0.00
2019-04-27T01:54:01.375Z,0.00
2019-04-27T01:55:01.429Z,0.00
2019-04-27T01:56:01.505Z,0.00
2019-04-27T01:57:04.145Z,0.00
2019-04-27T01:58:01.590Z,0.00
2019-04-27T01:59:01.642Z,0.00
2019-04-27T02:00:01.697Z,0.00
2019-04-27T02:01:01.756Z,0.00
2019-04-27T02:02:01.803Z,0.00
2019-04-27T02:03:01.857Z,0.00
2019-04-27T02:04:01.910Z,0.00
2019-04-27T02:05:01.994Z,0.00
2019-04-27T02:06:02.018Z,0.00
2019-04-27T02:07:02.072Z,0.00
2019-04-27T02:08:02.125Z,0.00
2019-04-27T02:09:02.177Z,0.00
2019-04-27T02:10:02.233Z,0.00
2019-04-27T02:11:02.286Z,0.00
2019-04-27T02:12:02.339Z,0.00
2019-04-27T02:13:02.392Z,0.00
2019-04-27T02:14:02.445Z,0.00
2019-04-27T02:15:02.516Z,0.00
2019-04-27T02:16:02.553Z,0.00
2019-04-27T02:17:02.611Z,0.00
2019-04-27T02:18:02.661Z,0.00
2019-04-27T02:19:02.717Z,0.00
2019-04-27T02:20:02.766Z,0.00
2019-04-27T02:21:02.820Z,0.00
2019-04-27T02:22:02.873Z,0.00
2019-04-27T02:23:02.929Z,0.00
2019-04-27T02:24:02.979Z,0.00
2019-04-27T02:25:03.033Z,0.00
2019-04-27T02:26:03.103Z,0.00
2019-04-27T02:27:03.141Z,0.00
2019-04-27T02:28:03.197Z,0.00
2019-04-27T02:29:03.247Z,0.00
2019-04-27T02:30:03.303Z,0.00
2019-04-27T02:31:03.355Z,0.00
2019-04-27T02:32:03.408Z,0.00
2019-04-27T02:33:03.466Z,0.00
2019-04-27T02:34:03.516Z,0.00
2019-04-27T02:35:03.568Z,0.00
2019-04-27T02:36:03.632Z,0.00
2019-04-27T02:37:03.676Z,0.00
2019-04-27T02:38:03.729Z,0.00
2019-04-27T02:39:03.784Z,0.00
2019-04-27T02:40:03.837Z,0.00
2019-04-27T02:41:03.893Z,0.00
2019-04-27T02:42:03.945Z,0.00
2019-04-27T02:43:03.997Z,0.00
2019-04-27T02:44:04.050Z,0.00
2019-04-27T02:45:04.104Z,0.00
2019-04-27T02:46:04.171Z,0.00
2019-04-27T02:47:04.210Z,0.00
2019-04-27T02:48:04.263Z,0.00
2019-04-27T02:49:07.074Z,0.00
2019-04-27T02:50:04.371Z,0.00
2019-04-27T02:51:04.426Z,0.00
2019-04-27T02:52:04.479Z,0.00
2019-04-27T02:53:04.529Z,0.00
2019-04-27T02:54:04.584Z,0.00
2019-04-27T02:55:04.637Z,0.00
2019-04-27T02:56:04.698Z,0.00
2019-04-27T02:57:04.745Z,0.00
2019-04-27T02:58:04.796Z,0.00
2019-04-27T02:59:04.854Z,0.00
2019-04-27T03:00:04.905Z,0.00
2019-04-27T03:01:04.958Z,0.00
2019-04-27T03:02:05.014Z,0.00
2019-04-27T03:03:05.064Z,0.00
2019-04-27T03:04:05.117Z,0.00
2019-04-27T03:05:05.169Z,0.00
2019-04-27T03:06:05.224Z,0.00
2019-04-27T03:07:05.282Z,0.00
2019-04-27T03:08:05.331Z,0.00
2019-04-27T03:09:05.393Z,0.00
2019-04-27T03:10:05.437Z,0.00
2019-04-27T03:11:05.494Z,0.00
2019-04-27T03:12:05.543Z,0.00
2019-04-27T03:13:05.604Z,0.00
2019-04-27T03:14:05.650Z,0.00
2019-04-27T03:15:05.705Z,0.00
2019-04-27T03:16:05.757Z,0.00
2019-04-27T03:17:05.813Z,0.00
2019-04-27T03:18:05.862Z,0.00
2019-04-27T03:19:14.994Z,0.00
2019-04-27T03:20:05.971Z,0.00
2019-04-27T03:21:06.022Z,0.00
2019-04-27T03:22:06.074Z,0.00
2019-04-27T03:23:06.129Z,0.00
2019-04-27T03:24:06.184Z,0.00
2019-04-27T03:25:06.235Z,0.00
2019-04-27T03:26:06.288Z,0.00
2019-04-27T03:27:06.344Z,0.00
2019-04-27T03:28:06.403Z,0.00
2019-04-27T03:29:06.449Z,0.00
2019-04-27T03:30:06.503Z,0.00
2019-04-27T03:31:06.587Z,0.00
2019-04-27T03:32:06.611Z,0.00
2019-04-27T03:33:06.664Z,0.00
2019-04-27T03:34:15.401Z,0.00
2019-04-27T03:35:06.772Z,0.00
2019-04-27T03:36:06.824Z,0.00
2019-04-27T03:37:06.880Z,0.00
2019-04-27T03:38:06.930Z,0.00
2019-04-27T03:39:06.984Z,0.00
2019-04-27T03:40:07.037Z,0.00
2019-04-27T03:41:09.346Z,0.00
2019-04-27T03:42:07.142Z,0.00
2019-04-27T03:43:09.425Z,0.00
2019-04-27T03:44:09.311Z,4.00
2019-04-27T03:45:07.302Z,4.00
2019-04-27T03:46:10.116Z,0.00
2019-04-27T03:47:12.248Z,4.00
2019-04-27T03:48:07.477Z,4.00
2019-04-27T03:49:09.653Z,8.00
2019-04-27T03:50:09.809Z,4.00
2019-04-27T03:51:09.826Z,8.00
2019-04-27T03:52:09.620Z,8.00
2019-04-27T03:53:10.142Z,8.00
2019-04-27T03:54:07.789Z,12.00
2019-04-27T03:55:10.134Z,12.00
2019-04-27T03:56:10.056Z,16.00
2019-04-27T03:57:09.917Z,16.00
2019-04-27T03:58:11.797Z,24.00
2019-04-27T03:59:10.130Z,24.00
2019-04-27T04:00:10.163Z,28.00
2019-04-27T04:01:10.576Z,32.00
2019-04-27T04:02:10.188Z,40.00
2019-04-27T04:03:10.487Z,44.00
2019-04-27T04:04:10.452Z,52.00
2019-04-27T04:05:09.793Z,60.00
2019-04-27T04:06:10.817Z,68.00
2019-04-27T04:07:09.563Z,76.00
2019-04-27T04:08:10.647Z,88.00
2019-04-27T04:09:10.191Z,96.00
2019-04-27T04:10:10.781Z,108.00
2019-04-27T04:11:10.324Z,116.00
2019-04-27T04:12:09.587Z,124.00
2019-04-27T04:13:10.779Z,140.00
2019-04-27T04:14:10.154Z,156.00
2019-04-27T04:15:10.014Z,172.00
2019-04-27T04:16:10.781Z,192.00
2019-04-27T04:17:12.388Z,212.00
2019-04-27T04:18:09.731Z,224.00
2019-04-27T04:19:09.809Z,240.00
2019-04-27T04:20:10.191Z,260.00
2019-04-27T04:21:09.603Z,280.00
2019-04-27T04:22:10.275Z,312.00
2019-04-27T04:23:10.623Z,344.00
2019-04-27T04:24:11.876Z,388.00
2019-04-27T04:25:10.705Z,416.00
2019-04-27T04:26:09.901Z,420.00
2019-04-27T04:27:10.017Z,440.00
2019-04-27T04:28:09.643Z,480.00
2019-04-27T04:29:10.543Z,532.00
2019-04-27T04:30:12.220Z,540.00
2019-04-27T04:31:13.453Z,564.00
2019-04-27T04:32:10.655Z,600.00
2019-04-27T04:33:10.463Z,628.00
2019-04-27T04:34:12.128Z,668.00
2019-04-27T04:35:10.354Z,700.00
2019-04-27T04:36:10.305Z,720.00
2019-04-27T04:37:10.082Z,756.00
2019-04-27T04:38:10.595Z,804.00
2019-04-27T04:39:12.331Z,848.00
2019-04-27T04:40:10.229Z,904.00
2019-04-27T04:41:10.283Z,976.00
2019-04-27T04:42:10.522Z,1072.00
2019-04-27T04:43:10.949Z,1188.00
2019-04-27T04:44:12.493Z,1272.00
2019-04-27T04:45:10.785Z,1296.00
2019-04-27T04:46:13.048Z,1288.00
2019-04-27T04:47:10.601Z,1300.00
2019-04-27T04:48:10.656Z,1296.00
2019-04-27T04:49:10.709Z,1292.00
2019-04-27T04:50:14.933Z,1396.00
2019-04-27T04:51:10.814Z,1596.00
2019-04-27T04:52:10.869Z,1780.00
2019-04-27T04:53:12.168Z,1940.00
2019-04-27T04:54:10.974Z,2092.00
2019-04-27T04:55:11.027Z,2212.00
2019-04-27T04:56:11.082Z,2300.00
2019-04-27T04:57:11.133Z,2316.00
2019-04-27T04:58:11.189Z,2284.00
2019-04-27T04:59:11.242Z,2260.00
2019-04-27T05:00:11.299Z,2260.00
2019-04-27T05:01:11.351Z,2240.00
2019-04-27T05:02:12.062Z,2220.00
2019-04-27T05:03:12.234Z,2240.00
2019-04-27T05:04:11.509Z,2216.00
2019-04-27T05:05:11.566Z,2196.00
2019-04-27T05:06:11.616Z,2216.00
2019-04-27T05:07:11.672Z,2164.00
2019-04-27T05:08:11.723Z,2144.00
2019-04-27T05:09:11.778Z,2112.00
2019-04-27T05:10:11.830Z,2080.00
2019-04-27T05:11:11.883Z,2056.00
2019-04-27T05:12:11.938Z,2032.00
2019-04-27T05:13:11.989Z,1988.00
2019-04-27T05:14:12.044Z,1944.00
2019-04-27T05:15:12.098Z,1896.00
2019-04-27T05:16:12.155Z,1888.00
2019-04-27T05:17:12.204Z,1860.00
2019-04-27T05:18:12.261Z,1812.00
2019-04-27T05:19:12.312Z,1804.00
2019-04-27T05:20:22.336Z,1872.00
2019-04-27T05:21:12.421Z,1968.00
2019-04-27T05:22:12.474Z,2076.00
2019-04-27T05:23:12.526Z,2228.00
2019-04-27T05:24:12.582Z,2316.00
2019-04-27T05:25:12.634Z,2480.00
2019-04-27T05:26:13.436Z,2692.00
2019-04-27T05:27:12.742Z,2960.00
2019-04-27T05:28:12.796Z,3244.00
2019-04-27T05:29:12.850Z,3504.00
2019-04-27T05:30:12.903Z,3668.00
2019-04-27T05:31:12.958Z,3592.00
2019-04-27T05:32:13.012Z,3712.00
2019-04-27T05:33:13.065Z,3848.00
2019-04-27T05:34:13.119Z,4040.00
2019-04-27T05:35:13.173Z,4160.00
2019-04-27T05:36:13.440Z,4188.00
2019-04-27T05:37:13.280Z,4284.00
2019-04-27T05:38:13.643Z,4468.00
2019-04-27T05:39:17.215Z,4616.00
2019-04-27T05:40:13.443Z,4304.00
2019-04-27T05:41:13.495Z,3768.00
2019-04-27T05:42:17.027Z,3028.00
2019-04-27T05:43:13.605Z,2716.00
2019-04-27T05:44:13.658Z,2772.00
2019-04-27T05:45:15.347Z,2840.00
2019-04-27T05:46:13.766Z,2884.00
2019-04-27T05:47:13.821Z,2996.00
2019-04-27T05:48:13.875Z,2952.00
2019-04-27T05:49:13.931Z,2916.00
2019-04-27T05:50:18.334Z,2908.00
2019-04-27T05:51:14.037Z,2984.00
2019-04-27T05:52:14.672Z,2908.00
2019-04-27T05:53:14.144Z,2812.00
2019-04-27T05:54:14.198Z,2676.00
2019-04-27T05:55:14.254Z,2656.00
2019-04-27T05:56:14.309Z,2740.00
2019-04-27T05:57:14.362Z,2808.00
2019-04-27T05:58:14.417Z,2940.00
2019-04-27T05:59:14.850Z,2992.00
2019-04-27T06:00:14.538Z,3164.00
2019-04-27T06:01:14.581Z,3780.00
2019-04-27T06:02:14.636Z,4204.00
2019-04-27T06:03:14.690Z,4580.00
2019-04-27T06:04:14.747Z,4584.00
2019-04-27T06:05:14.802Z,4560.00
2019-04-27T06:06:14.854Z,4328.00
2019-04-27T06:07:14.908Z,4884.00
2019-04-27T06:08:14.963Z,4988.00
2019-04-27T06:09:15.051Z,5148.00
2019-04-27T06:10:15.074Z,5040.00
2019-04-27T06:11:15.128Z,5064.00
2019-04-27T06:12:15.183Z,5068.00
2019-04-27T06:13:15.238Z,5236.00
2019-04-27T06:14:15.293Z,5608.00
2019-04-27T06:15:15.349Z,5944.00
2019-04-27T06:16:15.404Z,6368.00
2019-04-27T06:17:15.459Z,6668.00
2019-04-27T06:18:15.514Z,6560.00
2019-04-27T06:19:15.571Z,6652.00
2019-04-27T06:20:15.624Z,6544.00
2019-04-27T06:21:15.678Z,6732.00
2019-04-27T06:22:15.736Z,6088.00
2019-04-27T06:23:15.791Z,5404.00
2019-04-27T06:24:15.846Z,5400.00
2019-04-27T06:25:15.902Z,5608.00
2019-04-27T06:26:15.962Z,5856.00
2019-04-27T06:27:16.016Z,5856.00
2019-04-27T06:28:16.070Z,5580.00
2019-04-27T06:29:16.127Z,5556.00
2019-04-27T06:30:16.180Z,5036.00
2019-04-27T06:31:16.842Z,5396.00
2019-04-27T06:32:16.292Z,6476.00
2019-04-27T06:33:27.988Z,6092.00
2019-04-27T06:34:16.403Z,5708.00
2019-04-27T06:35:16.458Z,5572.00
2019-04-27T06:36:16.515Z,5352.00
2019-04-27T06:37:16.570Z,4728.00
2019-04-27T06:38:16.626Z,4740.00
2019-04-27T06:39:16.681Z,3976.00
2019-04-27T06:40:16.737Z,3704.00
2019-04-27T06:41:18.837Z,4164.00
2019-04-27T06:42:20.379Z,4596.00
2019-04-27T06:43:18.795Z,4752.00
2019-04-27T06:44:16.962Z,4288.00
2019-04-27T06:45:17.016Z,4528.00
2019-04-27T06:46:17.073Z,4608.00
2019-04-27T06:47:17.128Z,4564.00
2019-04-27T06:48:17.186Z,5564.00
2019-04-27T06:49:17.241Z,6208.00
2019-04-27T06:50:17.297Z,6092.00
2019-04-27T06:51:17.352Z,6776.00
2019-04-27T06:52:18.685Z,6508.00
2019-04-27T06:53:19.064Z,6168.00
2019-04-27T06:54:17.521Z,5132.00
2019-04-27T06:55:18.857Z,4812.00
2019-04-27T06:56:18.534Z,5392.00
2019-04-27T06:57:19.143Z,4960.00
2019-04-27T06:58:19.908Z,5192.00
2019-04-27T06:59:18.635Z,4992.00
2019-04-27T07:00:18.989Z,5220.00
2019-04-27T07:01:19.042Z,5016.00
2019-04-27T07:02:19.044Z,5108.00
2019-04-27T07:03:18.878Z,5520.00
2019-04-27T07:04:19.612Z,5508.00
2019-04-27T07:05:18.611Z,5552.00
2019-04-27T07:06:18.705Z,5228.00
2019-04-27T07:07:19.523Z,5144.00
2019-04-27T07:08:18.744Z,5500.00
2019-04-27T07:09:19.521Z,6048.00
2019-04-27T07:10:18.642Z,4504.00
2019-04-27T07:11:19.701Z,3716.00
2019-04-27T07:12:19.121Z,3924.00
2019-04-27T07:13:19.606Z,3744.00
2019-04-27T07:14:19.694Z,3228.00
2019-04-27T07:15:20.444Z,3124.00
2019-04-27T07:16:19.567Z,2760.00
2019-04-27T07:17:19.128Z,3312.00
2019-04-27T07:18:18.881Z,3500.00
2019-04-27T07:19:19.126Z,4112.00
2019-04-27T07:20:18.999Z,4116.00
2019-04-27T07:21:22.831Z,3988.00
2019-04-27T07:22:20.047Z,3660.00
2019-04-27T07:23:20.977Z,3620.00
2019-04-27T07:24:19.713Z,3356.00
2019-04-27T07:25:19.264Z,3380.00
2019-04-27T07:26:21.245Z,3372.00
2019-04-27T07:27:21.334Z,2996.00
2019-04-27T07:28:19.439Z,2968.00
2019-04-27T07:29:19.722Z,2944.00
2019-04-27T07:30:19.544Z,2980.00
2019-04-27T07:31:19.601Z,3472.00
2019-04-27T07:32:19.657Z,4540.00
2019-04-27T07:33:19.712Z,4368.00
2019-04-27T07:34:19.768Z,3852.00
2019-04-27T07:35:19.829Z,4144.00
2019-04-27T07:36:19.883Z,3548.00
2019-04-27T07:37:19.939Z,2908.00
2019-04-27T07:38:19.995Z,3060.00
2019-04-27T07:39:20.050Z,2948.00
2019-04-27T07:40:20.107Z,3028.00
2019-04-27T07:41:20.164Z,2856.00
2019-04-27T07:42:21.882Z,2952.00
2019-04-27T07:43:21.182Z,4172.00
2019-04-27T07:44:20.333Z,5976.00
2019-04-27T07:45:20.388Z,7480.00
2019-04-27T07:46:20.444Z,8684.00
2019-04-27T07:47:20.502Z,11896.00
2019-04-27T07:48:20.558Z,15448.00
2019-04-27T07:49:20.613Z,16764.00
2019-04-27T07:50:20.875Z,13768.00
2019-04-27T07:51:31.597Z,10320.00
2019-04-27T07:52:20.819Z,10756.00
2019-04-27T07:54:03.277Z,12708.00
2019-04-27T07:55:03.333Z,12268.00
2019-04-27T07:56:03.390Z,12668.00
2019-04-27T07:57:03.446Z,10464.00
2019-04-27T07:58:05.064Z,10328.00
2019-04-27T07:59:03.560Z,13244.00
2019-04-27T08:00:03.618Z,14360.00
2019-04-27T08:01:03.681Z,14012.00
2019-04-27T08:02:03.731Z,15428.00
2019-04-27T08:03:03.788Z,16628.00
2019-04-27T08:04:03.847Z,15516.00
2019-04-27T08:05:03.903Z,15804.00
2019-04-27T08:06:03.964Z,15896.00
2019-04-27T08:07:04.016Z,16132.00
2019-04-27T08:08:04.074Z,16292.00
2019-04-27T08:09:04.134Z,17412.00
2019-04-27T08:10:04.188Z,18976.00
2019-04-27T08:11:04.247Z,17792.00
2019-04-27T08:12:04.305Z,14772.00
2019-04-27T08:13:04.366Z,12516.00
2019-04-27T08:14:04.419Z,11356.00
2019-04-27T08:15:04.476Z,9408.00
2019-04-27T08:16:04.537Z,8204.00
2019-04-27T08:17:04.593Z,10220.00
2019-04-27T08:18:04.651Z,14480.00
2019-04-27T08:19:04.707Z,16836.00
2019-04-27T08:20:04.770Z,17920.00
2019-04-27T08:21:04.824Z,17824.00
2019-04-27T08:22:04.882Z,16328.00
2019-04-27T08:23:04.939Z,17076.00
2019-04-27T08:24:04.998Z,17824.00
2019-04-27T08:25:05.055Z,18688.00
2019-04-27T08:26:05.112Z,20608.00
2019-04-27T08:27:05.173Z,21376.00
2019-04-27T08:28:05.228Z,21088.00
2019-04-27T08:29:05.285Z,21344.00
2019-04-27T08:30:05.344Z,21184.00
2019-04-27T08:31:05.404Z,21728.00
2019-04-27T08:32:05.460Z,22944.00
2019-04-27T08:33:24.724Z,21888.00
2019-04-27T08:34:05.575Z,15980.00
2019-04-27T08:35:05.635Z,8964.00
2019-04-27T08:36:05.694Z,6904.00
2019-04-27T08:37:05.752Z,8160.00
2019-04-27T08:38:05.813Z,9988.00
2019-04-27T08:39:05.869Z,11044.00
2019-04-27T08:40:05.926Z,10780.00
2019-04-27T08:41:05.984Z,11280.00
2019-04-27T08:42:06.041Z,11728.00
2019-04-27T08:43:06.100Z,12496.00
2019-04-27T08:44:06.158Z,13032.00
2019-04-27T08:45:06.216Z,14756.00
2019-04-27T08:46:06.274Z,15132.00
2019-04-27T08:47:06.333Z,14496.00
2019-04-27T08:48:06.390Z,13668.00
2019-04-27T08:49:06.448Z,11320.00
2019-04-27T08:50:06.505Z,11608.00
2019-04-27T08:51:06.566Z,11656.00
2019-04-27T08:52:06.622Z,11532.00
2019-04-27T08:53:06.679Z,14924.00
2019-04-27T08:54:06.737Z,18816.00
2019-04-27T08:55:06.796Z,21536.00
2019-04-27T08:56:06.851Z,23200.00
2019-04-27T08:57:06.909Z,23424.00
2019-04-27T08:58:06.968Z,22368.00
2019-04-27T08:59:07.025Z,21376.00
2019-04-27T09:00:07.084Z,20256.00
2019-04-27T09:01:10.038Z,21088.00
2019-04-27T09:02:08.746Z,27232.00
2019-04-27T09:03:07.262Z,23232.00
2019-04-27T09:04:07.316Z,23552.00
2019-04-27T09:05:07.374Z,24288.00
2019-04-27T09:06:09.092Z,23968.00
2019-04-27T09:07:08.835Z,26176.00
2019-04-27T09:08:08.729Z,24608.00
2019-04-27T09:09:09.359Z,22368.00
2019-04-27T09:10:08.646Z,20960.00
2019-04-27T09:11:08.875Z,18656.00
2019-04-27T09:12:09.481Z,16080.00
2019-04-27T09:13:08.880Z,16108.00
2019-04-27T09:14:09.049Z,17792.00
2019-04-27T09:15:07.955Z,19776.00
2019-04-27T09:16:09.303Z,20160.00
2019-04-27T09:17:09.629Z,20896.00
2019-04-27T09:18:09.023Z,21920.00
2019-04-27T09:19:08.834Z,21632.00
2019-04-27T09:20:09.558Z,21312.00
2019-04-27T09:21:08.792Z,20096.00
2019-04-27T09:22:16.080Z,20640.00
2019-04-27T09:23:09.839Z,19456.00
2019-04-27T09:24:09.446Z,17360.00
2019-04-27T09:25:09.418Z,16308.00
2019-04-27T09:26:09.552Z,15656.00
2019-04-27T09:27:09.646Z,16676.00
2019-04-27T09:28:08.862Z,19488.00
2019-04-27T09:29:08.768Z,17664.00
2019-04-27T09:30:10.243Z,12420.00
2019-04-27T09:31:09.281Z,12056.00
2019-04-27T09:32:09.056Z,11180.00
2019-04-27T09:33:09.001Z,10036.00
2019-04-27T09:34:10.557Z,10000.00
2019-04-27T09:35:09.115Z,13868.00
2019-04-27T09:36:09.172Z,12948.00
2019-04-27T09:37:09.230Z,13568.00
2019-04-27T09:38:09.289Z,14824.00
2019-04-27T09:39:09.346Z,11424.00
2019-04-27T09:40:09.403Z,12760.00
2019-04-27T09:41:09.462Z,13552.00
2019-04-27T09:42:09.519Z,14820.00
2019-04-27T09:43:09.577Z,13664.00
2019-04-27T09:44:09.637Z,10548.00
2019-04-27T09:45:09.693Z,11704.00
2019-04-27T09:46:09.750Z,16044.00
2019-04-27T09:47:09.809Z,21152.00
2019-04-27T09:48:09.866Z,23520.00
2019-04-27T09:49:12.141Z,27808.00
2019-04-27T09:50:09.980Z,26528.00
2019-04-27T09:51:10.038Z,20416.00
2019-04-27T09:52:10.097Z,16556.00
2019-04-27T09:53:10.152Z,18560.00
2019-04-27T09:54:10.211Z,21152.00
2019-04-27T09:55:10.270Z,18304.00
2019-04-27T09:56:10.326Z,18816.00
2019-04-27T09:57:10.384Z,18272.00
2019-04-27T09:58:10.446Z,14060.00
2019-04-27T09:59:10.500Z,12144.00
2019-04-27T10:00:10.558Z,15304.00
2019-04-27T10:01:10.617Z,18304.00
2019-04-27T10:02:10.674Z,16788.00
2019-04-27T10:03:10.732Z,15060.00
2019-04-27T10:04:11.128Z,15736.00
2019-04-27T10:05:10.848Z,15708.00
2019-04-27T10:06:10.905Z,13084.00
2019-04-27T10:07:10.963Z,12556.00
2019-04-27T10:08:11.953Z,14924.00
2019-04-27T10:09:11.574Z,19168.00
2019-04-27T10:10:11.906Z,20768.00
2019-04-27T10:11:11.813Z,19552.00
2019-04-27T10:12:11.994Z,21760.00
2019-04-27T10:13:11.313Z,23392.00
2019-04-27T10:14:11.368Z,23296.00
2019-04-27T10:15:11.428Z,18656.00
2019-04-27T10:16:11.486Z,15980.00
2019-04-27T10:17:11.557Z,14008.00
2019-04-27T10:18:11.600Z,11864.00
2019-04-27T10:19:12.214Z,11328.00
2019-04-27T10:20:11.718Z,9460.00
2019-04-27T10:21:11.777Z,10268.00
2019-04-27T10:22:11.867Z,12736.00
2019-04-27T10:23:11.892Z,15300.00
2019-04-27T10:24:12.007Z,19232.00
2019-04-27T10:25:12.009Z,25184.00
2019-04-27T10:26:12.066Z,24096.00
2019-04-27T10:27:12.126Z,24544.00
2019-04-27T10:28:12.184Z,24544.00
2019-04-27T10:29:12.241Z,23872.00
2019-04-27T10:30:12.298Z,28704.00
2019-04-27T10:31:12.360Z,26208.00
2019-04-27T10:32:12.417Z,22048.00
2019-04-27T10:33:12.473Z,21088.00
2019-04-27T10:34:12.531Z,19392.00
2019-04-27T10:35:12.589Z,19968.00
2019-04-27T10:36:12.647Z,20544.00
2019-04-27T10:37:12.705Z,20800.00
2019-04-27T10:38:12.767Z,17156.00
2019-04-27T10:39:13.443Z,34848.00
2019-04-27T10:40:12.881Z,16448.00
2019-04-27T10:41:12.942Z,16104.00
2019-04-27T10:42:12.998Z,17696.00
2019-04-27T10:43:13.064Z,19776.00
2019-04-27T10:44:13.450Z,14788.00
2019-04-27T10:45:13.190Z,15076.00
2019-04-27T10:46:13.231Z,18048.00
2019-04-27T10:47:13.292Z,20736.00
2019-04-27T10:48:13.347Z,16060.00
2019-04-27T10:49:13.406Z,14848.00
2019-04-27T10:50:13.466Z,16816.00
2019-04-27T10:51:13.524Z,22880.00
2019-04-27T10:52:13.583Z,24320.00
2019-04-27T10:53:13.641Z,23680.00
2019-04-27T10:54:13.699Z,19872.00
2019-04-27T10:55:13.760Z,14480.00
2019-04-27T10:56:13.817Z,11716.00
2019-04-27T10:57:15.744Z,13676.00
2019-04-27T10:58:13.933Z,16816.00
2019-04-27T10:59:13.990Z,17952.00
2019-04-27T11:00:14.050Z,21344.00
2019-04-27T11:01:15.625Z,23040.00
2019-04-27T11:02:14.165Z,26560.00
2019-04-27T11:03:14.224Z,31296.00
2019-04-27T11:04:15.925Z,33248.00
2019-04-27T11:05:14.341Z,32800.00
2019-04-27T11:06:15.959Z,23488.00
2019-04-27T11:07:15.886Z,16944.00
2019-04-27T11:08:16.582Z,12364.00
2019-04-27T11:09:16.210Z,9852.00
2019-04-27T11:10:16.335Z,9792.00
2019-04-27T11:11:14.691Z,8676.00
2019-04-27T11:12:15.812Z,6848.00
2019-04-27T11:13:16.426Z,6540.00
2019-04-27T11:14:15.973Z,7296.00
2019-04-27T11:15:16.360Z,7828.00
2019-04-27T11:16:14.985Z,5552.00
2019-04-27T11:17:16.409Z,4852.00
2019-04-27T11:18:16.693Z,4420.00
2019-04-27T11:19:16.892Z,4876.00
2019-04-27T11:20:15.216Z,7924.00
2019-04-27T11:21:15.843Z,10680.00
2019-04-27T11:22:15.869Z,12964.00
2019-04-27T11:23:16.436Z,15112.00
2019-04-27T11:24:15.496Z,17952.00
2019-04-27T11:25:16.417Z,21408.00
2019-04-27T11:26:16.062Z,27392.00
2019-04-27T11:27:15.619Z,28032.00
2019-04-27T11:28:15.796Z,26336.00
2019-04-27T11:29:15.732Z,22528.00
2019-04-27T11:30:15.796Z,18400.00
2019-04-27T11:31:17.262Z,14860.00
2019-04-27T11:32:15.987Z,12596.00
2019-04-27T11:33:16.237Z,10948.00
2019-04-27T11:34:16.023Z,9656.00
2019-04-27T11:35:16.071Z,9280.00
2019-04-27T11:36:17.068Z,9700.00
2019-04-27T11:37:16.185Z,9572.00
2019-04-27T11:38:16.770Z,8480.00
2019-04-27T11:39:19.623Z,7696.00
2019-04-27T11:40:16.352Z,7452.00
2019-04-27T11:41:16.410Z,7872.00
2019-04-27T11:42:16.465Z,8912.00
2019-04-27T11:43:16.521Z,10460.00
2019-04-27T11:44:17.065Z,11352.00
2019-04-27T11:45:16.641Z,11616.00
2019-04-27T11:46:16.687Z,12464.00
2019-04-27T11:47:16.743Z,14096.00
2019-04-27T11:48:17.356Z,13452.00
2019-04-27T11:49:16.856Z,12252.00
2019-04-27T11:50:17.317Z,11644.00
2019-04-27T11:51:17.474Z,11720.00
2019-04-27T11:52:17.023Z,11216.00
2019-04-27T11:53:22.746Z,10168.00
2019-04-27T11:54:17.134Z,9544.00
2019-04-27T11:55:17.189Z,8860.00
2019-04-27T11:56:17.784Z,8252.00
2019-04-27T11:57:17.303Z,8036.00
2019-04-27T11:58:17.358Z,7736.00
2019-04-27T11:59:17.413Z,7600.00
2019-04-27T12:00:17.472Z,7564.00
2019-04-27T12:01:17.526Z,7328.00
2019-04-27T12:02:17.702Z,7312.00
2019-04-27T12:03:17.637Z,7440.00
2019-04-27T12:04:17.693Z,7740.00
2019-04-27T12:05:17.749Z,8352.00
2019-04-27T12:06:17.805Z,9608.00
2019-04-27T12:07:17.859Z,11144.00
2019-04-27T12:08:17.916Z,12900.00
2019-04-27T12:09:17.972Z,15808.00
2019-04-27T12:10:18.028Z,19840.00
2019-04-27T12:11:18.085Z,22432.00
2019-04-27T12:12:21.682Z,22464.00
2019-04-27T12:13:18.198Z,20928.00
2019-04-27T12:14:18.258Z,19936.00
2019-04-27T12:15:18.310Z,20384.00
2019-04-27T12:16:18.366Z,21376.00
2019-04-27T12:17:18.422Z,23040.00
2019-04-27T12:18:18.478Z,24544.00
2019-04-27T12:19:18.535Z,24128.00
2019-04-27T12:20:18.592Z,21184.00
2019-04-27T12:21:18.649Z,16708.00
2019-04-27T12:22:18.705Z,13568.00
2019-04-27T12:23:18.764Z,11292.00